Time;durP1;ratioP1;P1;durP2;ratioP2;P2;SDS_P1;SDS_P2;PMS_P1;PMS_P2;Temp;Humidity;BMP_temperature;BMP_pressure;BME280_temperature;BME280_humidity;BME280_pressure;Samples;Min_cycle;Max_cycle;Signal;HPM_P1;HPM_P2
2022/03/08 00:00:32;;;;;;;17.40;11.00;;;;;;;2.61;64.93;101325.81;8365300;28;20083;-64
2022/03/08 00:04:32;;;;;;;19.17;10.35;;;;;;;2.60;65.14;101324.09;8331549;28;20124;-64
2022/03/08 00:08:32;;;;;;;15.60;10.63;;;;;;;2.61;64.92;101314.25;8410368;28;20492;-64
2022/03/08 00:12:33;;;;;;;14.13;9.77;;;;;;;2.73;64.52;101314.56;8413970;28;20098;-64
2022/03/08 00:16:34;;;;;;;16.50;9.98;;;;;;;2.58;64.69;101309.94;8397374;28;20567;-64
2022/03/08 00:20:35;;;;;;;18.15;10.50;;;;;;;2.57;64.68;101305.56;8396582;28;20044;-64
2022/03/08 00:24:35;;;;;;;20.55;10.98;;;;;;;2.52;64.87;101299.56;8396336;28;20032;-64
2022/03/08 00:28:36;;;;;;;15.93;10.43;;;;;;;2.49;65.05;101299.69;8397021;28;20032;-64
2022/03/08 00:32:37;;;;;;;17.80;10.57;;;;;;;2.44;65.71;101296.34;8384943;28;20044;-64
2022/03/08 00:36:38;;;;;;;23.80;12.02;;;;;;;2.40;65.95;101300.13;8396354;28;20051;-64
2022/03/08 00:40:38;;;;;;;20.48;10.80;;;;;;;2.31;66.46;101303.19;8397789;28;20036;-64
2022/03/08 00:44:39;;;;;;;19.98;11.80;;;;;;;2.28;66.64;101306.00;8379637;28;20039;-64
2022/03/08 00:48:40;;;;;;;19.38;11.65;;;;;;;2.18;67.43;101304.69;8398507;28;20040;-64
2022/03/08 00:52:40;;;;;;;19.27;11.43;;;;;;;2.14;67.38;101303.13;8393494;28;20050;-64
2022/03/08 00:56:40;;;;;;;21.95;13.02;;;;;;;2.05;67.59;101304.38;8392928;28;20064;-64
2022/03/08 01:00:41;;;;;;;25.17;11.90;;;;;;;1.98;67.67;101302.91;8369499;28;20155;-64
2022/03/08 01:04:42;;;;;;;18.02;10.77;;;;;;;1.90;68.41;101298.84;8359244;28;20044;-64
2022/03/08 01:08:42;;;;;;;19.73;11.30;;;;;;;1.88;68.51;101308.72;8397826;28;20036;-64
2022/03/08 01:12:45;;;;;;;17.63;10.70;;;;;;;1.84;68.41;101296.47;8404035;28;20040;-65
2022/03/08 01:16:45;;;;;;;22.13;11.10;;;;;;;1.76;68.93;101295.91;8401547;28;20044;-64
2022/03/08 01:20:45;;;;;;;22.23;11.48;;;;;;;1.75;69.54;101296.84;8400508;28;20139;-64
2022/03/08 01:24:46;;;;;;;19.23;11.48;;;;;;;1.67;69.79;101293.66;8393061;28;20032;-64
2022/03/08 01:28:46;;;;;;;20.92;11.60;;;;;;;1.59;69.96;101282.47;8402603;28;20067;-64
2022/03/08 01:32:47;;;;;;;19.83;11.93;;;;;;;1.46;70.44;101279.44;8403194;28;20044;-64
2022/03/08 01:36:48;;;;;;;19.75;12.07;;;;;;;1.42;71.14;101276.97;8403172;28;20181;-64
2022/03/08 01:40:48;;;;;;;19.45;11.40;;;;;;;1.47;70.63;101269.66;8402330;28;20036;-64
2022/03/08 01:44:50;;;;;;;17.95;10.80;;;;;;;1.46;70.51;101267.91;8402750;28;20032;-64
2022/03/08 01:48:50;;;;;;;17.67;11.25;;;;;;;1.39;70.75;101269.13;8402326;28;20029;-64
2022/03/08 01:52:52;;;;;;;19.15;11.63;;;;;;;1.34;71.13;101271.13;8403889;28;20037;-64
2022/03/08 01:56:52;;;;;;;25.35;10.77;;;;;;;1.35;71.35;101256.88;8403507;28;20054;-64
2022/03/08 02:00:52;;;;;;;16.42;10.13;;;;;;;1.26;71.67;101254.59;8404016;28;20033;-64
2022/03/08 02:04:53;;;;;;;18.67;10.60;;;;;;;1.29;71.46;101259.78;8401682;28;20025;-64
2022/03/08 02:08:54;;;;;;;16.08;9.90;;;;;;;1.28;71.70;101260.72;8401346;28;20032;-65
2022/03/08 02:12:54;;;;;;;16.98;10.50;;;;;;;1.24;71.75;101251.97;8372768;28;20037;-65
2022/03/08 02:16:55;;;;;;;20.00;10.15;;;;;;;1.26;71.80;101243.94;8396502;28;20041;-65
2022/03/08 02:20:55;;;;;;;15.73;9.80;;;;;;;1.30;71.66;101242.88;8370926;28;20251;-65
2022/03/08 02:24:55;;;;;;;13.20;8.43;;;;;;;1.39;70.84;101247.81;8350911;28;20033;-65
2022/03/08 02:28:56;;;;;;;14.23;9.40;;;;;;;1.50;70.48;101248.22;8351370;28;20040;-65
2022/03/08 02:32:56;;;;;;;15.30;9.57;;;;;;;1.62;69.32;101237.88;8366400;28;20036;-65
2022/03/08 02:37:04;;;;;;;17.15;9.20;;;;;;;1.72;68.45;101230.38;8366999;28;20044;-65
2022/03/08 02:41:05;;;;;;;14.93;9.18;;;;;;;1.77;68.06;101212.38;8397769;28;20119;-65
2022/03/08 02:45:07;;;;;;;16.75;9.50;;;;;;;1.57;68.14;101209.72;8368727;28;20040;-65
2022/03/08 02:49:07;;;;;;;15.90;9.32;;;;;;;1.56;69.21;101213.31;8399477;28;20032;-65
2022/03/08 02:53:07;;;;;;;11.93;8.60;;;;;;;1.67;68.27;101213.69;8387190;28;20082;-65
2022/03/08 02:57:08;;;;;;;15.63;8.63;;;;;;;1.68;68.44;101202.13;8398282;28;20044;-65
2022/03/08 03:01:08;;;;;;;14.98;8.75;;;;;;;1.70;68.32;101200.25;8389451;28;20033;-65
2022/03/08 03:05:09;;;;;;;18.42;8.50;;;;;;;1.68;68.58;101194.13;8367500;28;20037;-65
2022/03/08 03:09:10;;;;;;;14.15;8.63;;;;;;;1.68;68.27;101191.47;8380642;28;20520;-65
2022/03/08 03:13:10;;;;;;;18.67;9.30;;;;;;;1.68;68.21;101176.31;8400347;28;20037;-65
2022/03/08 03:17:11;;;;;;;13.88;8.75;;;;;;;1.65;68.00;101184.44;8402772;28;20043;-65
2022/03/08 03:21:11;;;;;;;15.20;8.20;;;;;;;1.68;68.17;101191.47;8398979;28;20040;-65
2022/03/08 03:25:13;;;;;;;14.32;7.72;;;;;;;1.57;68.73;101191.06;8397691;28;20045;-65
2022/03/08 03:29:14;;;;;;;13.75;7.20;;;;;;;1.58;69.14;101179.47;8398425;28;20043;-65
2022/03/08 03:33:14;;;;;;;13.52;8.05;;;;;;;1.51;69.04;101188.66;8398860;28;20065;-65
2022/03/08 03:37:15;;;;;;;13.48;7.80;;;;;;;1.62;69.19;101181.94;8398477;28;20033;-65
2022/03/08 03:41:15;;;;;;;15.45;8.25;;;;;;;1.61;69.21;101184.66;8379389;28;20032;-65
2022/03/08 03:45:16;;;;;;;13.35;8.40;;;;;;;1.60;68.80;101173.16;8397291;28;20056;-65
2022/03/08 03:49:16;;;;;;;16.33;8.25;;;;;;;1.66;68.97;101172.00;8397584;28;20063;-65
2022/03/08 03:53:17;;;;;;;13.60;7.93;;;;;;;1.74;68.77;101175.19;8388892;28;20048;-65
2022/03/08 03:57:17;;;;;;;11.70;7.68;;;;;;;1.71;68.41;101170.00;8396558;28;20504;-65
2022/03/08 04:01:18;;;;;;;16.58;8.10;;;;;;;1.74;68.52;101173.38;8395035;28;20043;-65
2022/03/08 04:05:19;;;;;;;14.27;8.40;;;;;;;1.86;67.63;101170.16;8395531;28;20041;-65
2022/03/08 04:09:19;;;;;;;13.05;8.27;;;;;;;1.84;68.16;101172.06;8396093;28;20032;-65
2022/03/08 04:13:19;;;;;;;14.48;8.93;;;;;;;1.93;67.26;101176.09;8410528;28;20039;-65
2022/03/08 04:17:20;;;;;;;15.40;9.02;;;;;;;1.83;68.06;101159.63;8395336;28;20040;-65
2022/03/08 04:21:20;;;;;;;12.55;8.55;;;;;;;1.84;67.89;101165.84;8378338;28;20038;-65
2022/03/08 04:25:21;;;;;;;11.15;7.57;;;;;;;1.86;67.85;101164.84;8376809;28;20198;-65
2022/03/08 04:29:22;;;;;;;15.10;8.48;;;;;;;1.85;68.21;101162.22;8379332;28;20090;-65
2022/03/08 04:33:22;;;;;;;15.80;8.57;;;;;;;1.86;68.34;101158.66;8394333;28;20040;-65
2022/03/08 04:37:23;;;;;;;13.43;8.32;;;;;;;1.74;68.29;101153.88;8379589;28;20115;-65
2022/03/08 04:41:23;;;;;;;14.98;8.15;;;;;;;1.75;68.04;101145.81;8380510;28;20036;-65
2022/03/08 04:45:24;;;;;;;14.75;8.32;;;;;;;1.80;67.99;101148.28;8377058;28;20072;-65
2022/03/08 04:49:25;;;;;;;10.18;7.25;;;;;;;1.82;68.30;101135.72;8383916;28;20035;-65
2022/03/08 04:53:31;;;;;;;13.23;7.93;;;;;;;1.79;68.45;101141.19;8368169;28;20048;-65
2022/03/08 04:57:32;;;;;;;11.50;8.40;;;;;;;1.66;68.91;101145.34;8350002;28;20556;-65
2022/03/08 05:01:32;;;;;;;13.23;7.57;;;;;;;1.56;69.90;101141.38;8377764;28;20403;-65
2022/03/08 05:05:33;;;;;;;12.90;7.97;;;;;;;1.49;70.20;101143.44;8383080;28;20047;-65
2022/03/08 05:09:33;;;;;;;18.73;7.75;;;;;;;1.43;70.26;101142.84;8382913;28;20047;-65
2022/03/08 05:13:34;;;;;;;21.35;8.60;;;;;;;1.41;70.46;101150.06;8401391;28;20044;-65
2022/03/08 05:17:35;;;;;;;14.80;8.00;;;;;;;1.48;69.83;101140.84;8369548;28;20107;-64
2022/03/08 05:21:35;;;;;;;14.50;7.80;;;;;;;1.48;69.87;101147.06;8391207;28;20040;-64
2022/03/08 05:25:35;;;;;;;15.30;8.23;;;;;;;1.61;69.55;101150.91;8394360;28;20036;-65
2022/03/08 05:29:36;;;;;;;11.82;8.40;;;;;;;1.67;69.54;101141.75;8363942;28;20051;-65
2022/03/08 05:33:37;;;;;;;12.07;7.88;;;;;;;1.65;69.16;101133.81;8403585;28;20048;-65
2022/03/08 05:37:37;;;;;;;12.82;8.48;;;;;;;1.65;69.17;101135.66;8376715;28;20541;-66
2022/03/08 05:41:38;;;;;;;12.52;7.90;;;;;;;1.67;69.00;101141.75;8386519;28;20032;-65
2022/03/08 05:45:38;;;;;;;12.77;7.88;;;;;;;1.75;68.61;101131.63;8421545;28;20092;-65
2022/03/08 05:49:38;;;;;;;12.35;8.10;;;;;;;1.74;68.54;101132.56;8383996;28;20040;-65
2022/03/08 05:53:39;;;;;;;14.43;8.20;;;;;;;1.76;68.30;101136.00;8376754;28;20512;-65
2022/03/08 05:57:39;;;;;;;15.18;8.98;;;;;;;1.77;68.91;101140.41;8393815;28;20110;-65
2022/03/08 06:01:40;;;;;;;12.45;8.23;;;;;;;1.77;68.71;101143.09;8355355;28;20047;-65
2022/03/08 06:05:40;;;;;;;14.13;8.02;;;;;;;1.79;68.63;101152.72;8385604;28;20060;-65
2022/03/08 06:09:40;;;;;;;13.50;8.00;;;;;;;1.79;68.57;101159.84;8367093;28;20059;-65
2022/03/08 06:13:41;;;;;;;15.63;8.52;;;;;;;1.86;68.26;101172.00;8376278;28;20135;-65
2022/03/08 06:17:42;;;;;;;16.02;7.90;;;;;;;1.91;67.50;101167.28;8378264;28;20052;-65
2022/03/08 06:21:42;;;;;;;15.10;8.38;;;;;;;2.00;67.53;101172.19;8367833;28;20322;-65
2022/03/08 06:25:42;;;;;;;14.27;8.07;;;;;;;2.07;67.20;101168.31;8369319;28;20041;-65
2022/03/08 06:29:43;;;;;;;16.27;9.00;;;;;;;2.22;66.86;101182.75;8377769;28;20048;-65
2022/03/08 06:33:43;;;;;;;16.58;8.95;;;;;;;2.67;67.59;101192.06;8362391;28;20409;-63
2022/03/08 06:37:44;;;;;;;12.65;8.18;;;;;;;2.37;66.70;101182.88;8364062;28;20406;-65
2022/03/08 06:41:44;;;;;;;12.90;7.63;;;;;;;2.38;66.59;101183.75;8377957;28;20037;-65
2022/03/08 06:45:45;;;;;;;17.42;8.73;;;;;;;2.40;66.60;101182.72;8381433;28;20044;-65
2022/03/08 06:49:45;;;;;;;16.05;8.35;;;;;;;2.51;66.38;101183.09;8370451;28;20052;-65
2022/03/08 06:53:45;;;;;;;16.80;10.02;;;;;;;2.56;66.29;101183.72;8387285;28;20068;-65
2022/03/08 06:57:46;;;;;;;22.30;10.85;;;;;;;2.61;66.17;101183.50;8403900;28;20072;-65
2022/03/08 07:01:46;;;;;;;14.38;9.38;;;;;;;2.67;67.03;101189.41;8388954;28;20032;-65
2022/03/08 07:05:46;;;;;;;24.52;9.32;;;;;;;2.73;66.47;101186.44;8370110;28;20131;-65
2022/03/08 07:09:47;;;;;;;13.38;8.18;;;;;;;2.84;65.76;101189.44;8370528;28;20041;-65
2022/03/08 07:13:48;;;;;;;13.77;8.75;;;;;;;3.00;65.83;101178.88;8370845;28;20052;-65
2022/03/08 07:17:49;;;;;;;14.55;8.70;;;;;;;3.10;65.75;101186.34;8391755;28;20062;-65
2022/03/08 07:21:50;;;;;;;15.05;8.65;;;;;;;3.14;65.71;101174.53;8408707;28;20032;-66
2022/03/08 07:25:50;;;;;;;10.07;7.43;;;;;;;3.43;65.08;101175.72;8421617;28;20044;-65
2022/03/08 07:29:51;;;;;;;11.90;7.97;;;;;;;3.51;64.02;101171.69;8421622;28;20511;-65
2022/03/08 07:33:51;;;;;;;13.82;7.60;;;;;;;3.67;63.45;101180.66;8420721;28;20039;-65
2022/03/08 07:37:52;;;;;;;10.00;7.88;;;;;;;3.96;63.50;101173.75;8397546;28;20048;-65
2022/03/08 07:41:53;;;;;;;17.45;8.13;;;;;;;4.00;62.01;101181.50;8387189;28;20115;-66
2022/03/08 07:45:53;;;;;;;13.77;7.43;;;;;;;4.29;62.12;101184.41;8386943;28;20071;-65
2022/03/08 07:49:54;;;;;;;13.90;6.53;;;;;;;4.43;60.94;101181.84;8387257;28;20044;-65
2022/03/08 07:53:54;;;;;;;11.15;7.45;;;;;;;4.62;61.11;101185.19;8386726;28;20040;-65
2022/03/08 07:57:56;;;;;;;9.70;7.53;;;;;;;4.75;59.63;101183.53;8386552;28;20167;-65
2022/03/08 08:01:56;;;;;;;11.40;7.53;;;;;;;4.84;59.10;101174.97;8402392;28;20252;-65
2022/03/08 08:05:57;;;;;;;10.32;7.32;;;;;;;5.00;58.38;101181.22;8368157;28;20056;-65
2022/03/08 08:09:57;;;;;;;10.20;7.25;;;;;;;5.26;58.25;101180.53;8352303;28;20032;-66
2022/03/08 08:13:58;;;;;;;15.05;7.18;;;;;;;5.26;57.09;101192.13;8385994;28;20033;-66
2022/03/08 08:17:58;;;;;;;8.65;6.93;;;;;;;5.37;57.09;101180.75;8386326;28;20037;-66
2022/03/08 08:21:58;;;;;;;12.43;7.28;;;;;;;5.52;57.32;101186.03;8386671;28;20396;-66
2022/03/08 08:25:59;;;;;;;13.18;7.57;;;;;;;5.59;56.97;101175.81;8386384;28;20040;-66
2022/03/08 08:29:59;;;;;;;10.02;7.35;;;;;;;5.71;57.04;101161.66;8386381;28;20036;-66
2022/03/08 08:34:00;;;;;;;10.50;7.60;;;;;;;5.98;56.70;101178.78;8386172;28;20040;-66
2022/03/08 08:38:00;;;;;;;10.68;6.28;;;;;;;6.08;55.77;101163.81;8368576;28;20061;-66
2022/03/08 08:42:00;;;;;;;12.55;8.57;;;;;;;6.13;55.78;101187.69;8369109;28;20103;-66
2022/03/08 08:46:01;;;;;;;10.93;7.43;;;;;;;6.30;55.81;101174.91;8386108;28;20037;-66
2022/03/08 08:50:02;;;;;;;10.25;7.70;;;;;;;6.45;55.60;101167.69;8386352;28;20115;-65
2022/03/08 08:54:03;;;;;;;8.18;5.90;;;;;;;6.72;55.16;101172.16;8368315;28;20047;-66
2022/03/08 08:58:05;;;;;;;12.77;6.30;;;;;;;6.85;54.06;101166.81;8363308;28;20044;-66
2022/03/08 09:02:06;;;;;;;14.35;8.45;;;;;;;6.95;53.67;101166.09;8383032;28;20083;-66
2022/03/08 09:06:07;;;;;;;8.20;5.80;;;;;;;6.90;53.36;101170.94;8369298;28;20059;-66
2022/03/08 09:10:08;;;;;;;10.82;6.65;;;;;;;7.23;53.33;101157.91;8372574;28;20064;-66
2022/03/08 09:14:09;;;;;;;9.27;5.50;;;;;;;7.29;52.05;101146.75;8374380;28;20045;-66
2022/03/08 09:18:09;;;;;;;9.73;5.45;;;;;;;7.67;52.03;101147.66;8379180;28;20336;-66
2022/03/08 09:22:09;;;;;;;8.23;5.82;;;;;;;8.07;50.86;101140.31;8379516;28;20389;-66
2022/03/08 09:26:10;;;;;;;8.20;5.65;;;;;;;8.52;49.47;101130.78;8382159;28;20040;-66
2022/03/08 09:30:12;;;;;;;9.27;5.55;;;;;;;9.64;48.06;101140.09;8379625;28;20028;-66
2022/03/08 09:34:12;;;;;;;10.95;4.38;;;;;;;9.36;46.73;101127.00;8361183;28;20040;-66
2022/03/08 09:38:13;;;;;;;7.40;5.22;;;;;;;9.68;46.95;101126.25;8378079;28;20040;-66
2022/03/08 09:42:14;;;;;;;8.00;5.05;;;;;;;10.32;46.01;101127.41;8377484;28;20504;-66
2022/03/08 09:46:15;;;;;;;6.15;4.30;;;;;;;10.39;44.97;101123.22;8359507;28;20391;-66
2022/03/08 09:50:16;;;;;;;8.85;5.28;;;;;;;10.58;45.03;101142.34;8377902;28;20504;-66
2022/03/08 09:54:17;;;;;;;10.82;4.93;;;;;;;10.56;45.14;101125.41;8376670;28;20029;-66
2022/03/08 09:58:20;;;;;;;7.80;3.90;;;;;;;10.33;44.35;101118.31;8377479;28;20581;-66
2022/03/08 10:02:24;;;;;;;11.90;4.53;;;;;;;10.59;44.10;101119.75;8376392;28;20048;-66
2022/03/08 10:06:39;;;;;;;10.73;4.75;;;;;;;10.37;44.32;101141.38;8377260;28;20032;-65
2022/03/08 10:10:50;;;;;;;7.13;4.90;;;;;;;10.87;43.98;101108.38;8391007;28;20135;-65
2022/03/08 10:14:51;;;;;;;15.05;5.43;;;;;;;11.46;43.44;101104.16;8379148;28;20041;-65
2022/03/08 10:18:54;;;;;;;15.65;4.57;;;;;;;11.31;43.14;101108.16;8360156;28;20029;-66
2022/03/08 10:22:54;;;;;;;8.60;5.10;;;;;;;11.74;43.89;101111.63;8377138;28;20033;-65
2022/03/08 10:27:02;;;;;;;7.28;4.97;;;;;;;11.90;42.27;101098.44;8358872;28;20124;-65
2022/03/08 10:31:12;;;;;;;8.40;5.05;;;;;;;11.63;42.94;101092.75;8376931;28;20040;-66
2022/03/08 10:35:22;;;;;;;9.43;5.15;;;;;;;11.12;43.19;101080.97;8359083;28;20582;-66
2022/03/08 10:39:22;;;;;;;10.13;5.05;;;;;;;11.47;43.07;101092.31;8376088;28;20124;-66
2022/03/08 10:43:27;;;;;;;7.50;4.35;;;;;;;11.55;42.46;101088.94;8376038;28;20032;-65
2022/03/08 10:47:36;;;;;;;5.78;4.68;;;;;;;11.85;42.61;101081.75;8376025;28;20368;-66
2022/03/08 10:51:37;;;;;;;7.53;5.38;;;;;;;11.83;42.72;101072.91;8376036;28;20037;-66
2022/03/08 10:55:43;;;;;;;7.47;4.70;;;;;;;12.22;41.76;101094.75;8356703;28;20602;-66
2022/03/08 10:59:59;;;;;;;6.70;4.78;;;;;;;11.82;42.31;101092.88;8376125;28;20098;-66
2022/03/08 11:04:00;;;;;;;9.07;5.18;;;;;;;12.06;41.81;101080.84;8375895;28;20203;-66
2022/03/08 11:08:01;;;;;;;9.65;5.82;;;;;;;12.50;42.36;101083.97;8358893;28;20032;-66
2022/03/08 11:12:02;;;;;;;9.02;5.05;;;;;;;12.92;41.08;101052.06;8376600;28;20071;-66
2022/03/08 11:16:03;;;;;;;8.38;4.53;;;;;;;12.78;40.55;101085.06;8359455;28;20215;-66
2022/03/08 11:20:07;;;;;;;5.03;4.10;;;;;;;11.89;40.50;101083.19;8377772;28;20382;-66
2022/03/08 11:24:08;;;;;;;7.55;5.18;;;;;;;12.65;41.36;101060.03;8358281;28;20033;-66
2022/03/08 11:28:09;;;;;;;6.50;4.95;;;;;;;12.78;41.49;101038.94;8376014;28;20321;-66
2022/03/08 11:32:16;;;;;;;8.82;5.10;;;;;;;13.36;40.58;101040.66;8382589;28;20570;-66
2022/03/08 11:36:38;;;;;;;5.43;4.53;;;;;;;13.05;40.15;101052.69;8380828;28;20115;-65
2022/03/08 11:40:47;;;;;;;8.02;5.50;;;;;;;14.32;40.53;101047.47;8362827;28;20131;-65
2022/03/08 11:45:06;;;;;;;9.38;4.57;;;;;;;14.14;38.31;101038.38;8382080;28;20527;-66
2022/03/08 11:49:07;;;;;;;7.60;4.55;;;;;;;13.50;39.62;101015.72;8382401;28;20386;-65
2022/03/08 11:53:11;;;;;;;10.48;5.05;;;;;;;13.48;39.26;101042.19;8355199;28;20040;-66
2022/03/08 11:57:15;;;;;;;6.43;4.75;;;;;;;14.45;39.38;101009.88;8371407;28;20061;-65
2022/03/08 12:01:25;;;;;;;8.63;4.50;;;;;;;13.29;39.83;101040.34;8357859;28;20056;-66
2022/03/08 12:06:02;;;;;;;8.25;4.45;;;;;;;13.54;39.31;101028.00;8355351;28;20041;-66
2022/03/08 12:10:23;;;;;;;8.05;5.53;;;;;;;14.37;38.87;101023.41;8374413;28;20040;-66
2022/03/08 12:14:31;;;;;;;15.63;4.88;;;;;;;14.27;37.79;101011.69;8374672;28;20044;-66
2022/03/08 12:18:34;;;;;;;11.23;5.13;;;;;;;14.11;38.31;101005.16;8374799;28;20558;-66
2022/03/08 12:22:35;;;;;;;8.20;4.38;;;;;;;14.67;37.93;101003.97;8373743;28;20036;-66
2022/03/08 12:26:59;;;;;;;8.90;4.30;;;;;;;14.64;37.60;101004.28;8375565;28;20702;-66
2022/03/08 12:31:05;;;;;;;8.38;5.00;;;;;;;14.58;37.75;101010.34;8373750;28;20494;-66
2022/03/08 12:35:10;;;;;;;9.10;4.78;;;;;;;14.64;37.98;101009.72;8357387;28;20039;-65
2022/03/08 12:39:50;;;;;;;7.82;4.22;;;;;;;15.25;36.83;101004.34;8373428;28;20368;-66
2022/03/08 12:44:00;;;;;;;8.63;4.50;;;;;;;15.04;37.42;101001.94;8374464;28;20545;-66
2022/03/08 12:48:17;;;;;;;5.43;4.15;;;;;;;14.76;36.26;100975.81;8374216;28;20483;-66
2022/03/08 12:52:19;;;;;;;7.30;4.72;;;;;;;14.73;38.27;100984.28;8358269;28;20973;-66
2022/03/08 12:56:20;;;;;;;9.43;4.82;;;;;;;14.46;37.70;100989.84;8356626;28;20063;-66
2022/03/08 13:00:29;;;;;;;6.30;4.63;;;;;;;14.60;37.53;100977.53;8371067;28;20048;-65
2022/03/08 13:04:29;;;;;;;7.03;3.88;;;;;;;13.63;38.60;100978.22;8362212;28;20041;-66
2022/03/08 13:08:32;;;;;;;7.03;4.43;;;;;;;12.79;39.00;100980.94;8363631;28;20040;-66
2022/03/08 13:12:33;;;;;;;8.60;5.07;;;;;;;12.41;39.82;100956.53;8365739;28;20520;-65
2022/03/08 13:16:37;;;;;;;5.30;4.35;;;;;;;12.35;39.80;100978.78;8366510;28;20504;-65
2022/03/08 13:20:41;;;;;;;7.55;4.97;;;;;;;12.11;40.39;100968.34;8361330;28;20036;-66
2022/03/08 13:25:09;;;;;;;6.03;4.20;;;;;;;12.05;39.88;100968.88;8379789;28;20081;-66
2022/03/08 13:29:19;;;;;;;6.97;4.63;;;;;;;11.93;39.84;100970.84;8375774;28;20043;-66
2022/03/08 13:33:26;;;;;;;7.65;4.68;;;;;;;12.12;40.88;100970.03;8378410;28;20044;-66
2022/03/08 13:37:44;;;;;;;8.07;5.30;;;;;;;12.00;41.31;100959.44;8374476;28;20073;-66
2022/03/08 13:41:44;;;;;;;7.80;4.35;;;;;;;11.85;40.60;100940.88;8374171;28;20040;-65
2022/03/08 13:45:46;;;;;;;7.45;4.60;;;;;;;11.93;40.33;100969.13;8377991;28;20124;-65
2022/03/08 13:49:47;;;;;;;6.80;5.22;;;;;;;11.73;41.10;100968.19;8373815;28;20045;-65
2022/03/08 13:53:47;;;;;;;7.95;5.38;;;;;;;11.86;41.06;100958.84;8373777;28;20044;-65
2022/03/08 13:58:12;;;;;;;9.68;6.05;;;;;;;11.73;40.49;100952.81;8359144;28;20044;-66
2022/03/08 14:02:17;;;;;;;10.68;5.88;;;;;;;11.71;41.22;100946.66;8372014;28;20048;-65
2022/03/08 14:06:18;;;;;;;12.10;5.65;;;;;;;11.61;41.87;100947.59;8378670;28;20071;-65
2022/03/08 14:10:20;;;;;;;6.90;5.40;;;;;;;11.53;41.80;100953.69;8374654;28;20048;-66
2022/03/08 14:14:21;;;;;;;10.77;5.78;;;;;;;11.41;41.49;100960.19;8375819;28;20540;-66
2022/03/08 14:18:22;;;;;;;11.40;6.18;;;;;;;11.62;41.40;100950.19;8374747;28;20128;-65
2022/03/08 14:22:22;;;;;;;9.63;6.03;;;;;;;11.60;41.65;100971.13;8358222;28;20043;-65
2022/03/08 14:26:23;;;;;;;10.95;5.90;;;;;;;11.66;41.70;100973.34;8354082;28;20048;-66
2022/03/08 14:30:27;;;;;;;10.70;6.25;;;;;;;11.65;41.86;100966.19;8390633;28;20434;-66
2022/03/08 14:34:32;;;;;;;10.67;6.57;;;;;;;11.68;42.44;100976.75;8374918;28;20064;-65
2022/03/08 14:38:47;;;;;;;11.05;6.20;;;;;;;11.67;41.95;100976.88;8361083;28;20056;-65
2022/03/08 14:42:47;;;;;;;;;;;;;;;11.67;42.31;100974.16;8372528;28;20474;-65
2022/03/08 14:46:47;;;;;;;8.43;6.20;;;;;;;11.70;41.90;100980.19;8375340;28;19928;-65
2022/03/08 14:50:48;;;;;;;12.48;5.45;;;;;;;11.54;42.22;100963.56;8376806;28;20071;-65
2022/03/08 14:54:50;;;;;;;11.02;6.60;;;;;;;11.50;42.19;100918.75;8376362;28;20632;-65
2022/03/08 14:58:50;;;;;;;9.68;6.22;;;;;;;11.38;42.72;100941.50;8349918;28;20124;-65
2022/03/08 15:02:51;;;;;;;13.90;6.47;;;;;;;11.32;42.33;100950.16;8371502;28;20047;-65
2022/03/08 15:06:51;;;;;;;9.85;6.05;;;;;;;11.54;42.96;100946.44;8347772;28;20094;-65
2022/03/08 15:10:51;;;;;;;11.63;7.15;;;;;;;11.32;41.83;100952.03;8371439;28;20044;-65
2022/03/08 15:14:52;;;;;;;13.73;6.85;;;;;;;11.31;42.84;100955.72;8373574;28;20067;-65
2022/03/08 15:18:53;;;;;;;9.27;6.57;;;;;;;11.31;43.51;100953.88;8376890;28;20072;-64
2022/03/08 15:22:54;;;;;;;9.85;7.10;;;;;;;11.36;43.80;100951.63;8341546;28;20043;-65
2022/03/08 15:26:54;;;;;;;12.35;6.93;;;;;;;11.34;43.08;100940.06;8377891;28;20039;-64
2022/03/08 15:30:55;;;;;;;12.38;7.18;;;;;;;11.21;43.79;100955.69;8373122;28;20052;-65
2022/03/08 15:34:55;;;;;;;14.65;7.88;;;;;;;11.25;43.71;100957.13;8370424;28;20751;-65
2022/03/08 15:38:57;;;;;;;13.40;6.93;;;;;;;11.14;43.97;100951.81;8351599;28;20044;-65
2022/03/08 15:42:58;;;;;;;9.35;6.43;;;;;;;11.13;43.84;100957.34;8352521;28;20575;-65
2022/03/08 15:46:58;;;;;;;10.85;6.80;;;;;;;11.05;44.20;100960.72;8367694;28;20430;-65
2022/03/08 15:50:59;;;;;;;12.73;6.88;;;;;;;11.04;43.23;100920.28;8346883;28;20447;-65
2022/03/08 15:54:59;;;;;;;12.80;7.00;;;;;;;11.06;44.20;100957.00;8353727;28;20040;-65
2022/03/08 15:58:59;;;;;;;12.45;7.97;;;;;;;11.01;44.14;100936.75;8373811;28;20741;-65
2022/03/08 16:03:00;;;;;;;13.13;6.78;;;;;;;11.02;44.40;100947.47;8355486;28;20048;-65
2022/03/08 16:07:00;;;;;;;14.18;6.45;;;;;;;11.00;44.13;100956.66;8372916;28;20470;-65
2022/03/08 16:11:02;;;;;;;11.15;6.40;;;;;;;10.99;45.10;100939.59;8355688;28;20469;-65
2022/03/08 16:15:04;;;;;;;12.80;6.50;;;;;;;10.97;44.82;100936.16;8354685;28;20036;-65
2022/03/08 16:19:05;;;;;;;11.77;7.63;;;;;;;10.85;45.95;100945.34;8375093;28;20447;-65
2022/03/08 16:23:06;;;;;;;8.82;5.75;;;;;;;10.82;44.57;100953.72;8361947;28;20032;-65
2022/03/08 16:27:07;;;;;;;14.70;6.97;;;;;;;10.80;45.04;100950.28;8360938;28;20190;-65
2022/03/08 16:31:08;;;;;;;11.40;6.85;;;;;;;10.61;45.62;100943.88;8363018;28;20036;-65
2022/03/08 16:35:09;;;;;;;12.43;6.30;;;;;;;10.64;44.59;100957.97;8380131;28;20123;-65
2022/03/08 16:39:09;;;;;;;9.57;5.60;;;;;;;10.63;44.83;100956.28;8379796;28;20325;-65
2022/03/08 16:43:10;;;;;;;8.73;5.30;;;;;;;10.57;45.24;100954.09;8380507;28;20473;-65
2022/03/08 16:47:11;;;;;;;8.90;5.65;;;;;;;10.49;45.52;100959.28;8361268;28;20491;-65
2022/03/08 16:51:11;;;;;;;10.10;5.55;;;;;;;10.36;46.11;100960.44;8381921;28;20071;-65
2022/03/08 16:55:15;;;;;;;10.80;5.57;;;;;;;10.31;45.01;100947.31;8359897;28;20559;-65
2022/03/08 16:59:15;;;;;;;12.95;5.95;;;;;;;10.13;46.53;100965.06;8372568;28;20045;-63
2022/03/08 17:03:15;;;;;;;11.98;6.07;;;;;;;9.90;46.46;100972.34;8387874;28;20033;-62
2022/03/08 17:07:16;;;;;;;9.23;5.35;;;;;;;10.07;45.18;100962.00;8370930;28;20043;-65
2022/03/08 17:11:16;;;;;;;10.15;5.47;;;;;;;9.95;44.95;100971.97;8360485;28;20091;-65
2022/03/08 17:15:17;;;;;;;12.75;6.50;;;;;;;9.96;45.29;100981.75;8377635;28;20846;-65
2022/03/08 17:19:18;;;;;;;8.95;4.82;;;;;;;9.80;45.25;100994.81;8378089;28;20486;-65
2022/03/08 17:23:19;;;;;;;13.80;6.80;;;;;;;9.55;46.35;100998.59;8354087;28;20456;-65
2022/03/08 17:27:20;;;;;;;11.05;6.55;;;;;;;9.49;46.30;100995.56;8357560;28;20094;-65
2022/03/08 17:31:20;;;;;;;21.20;7.38;;;;;;;9.38;46.45;100998.22;8351883;28;20043;-65
2022/03/08 17:35:20;;;;;;;9.73;6.13;;;;;;;9.22;47.24;100986.94;8359210;28;20036;-65
2022/03/08 17:39:21;;;;;;;13.63;6.25;;;;;;;8.97;48.26;100997.94;8359346;28;20036;-65
2022/03/08 17:43:22;;;;;;;11.13;6.85;;;;;;;8.87;48.36;101002.28;8379377;28;20059;-65
2022/03/08 17:47:24;;;;;;;14.60;7.30;;;;;;;8.66;49.23;100998.56;8378441;28;20491;-65
2022/03/08 17:51:24;;;;;;;14.15;7.40;;;;;;;8.51;49.59;100999.72;8379422;28;20032;-65
2022/03/08 17:55:25;;;;;;;15.20;8.13;;;;;;;8.34;50.04;101008.19;8358574;28;20165;-65
2022/03/08 17:59:25;;;;;;;12.77;7.68;;;;;;;8.23;50.44;101000.91;8380286;28;20313;-65
2022/03/08 18:03:26;;;;;;;15.65;7.40;;;;;;;7.98;51.43;101007.22;8380776;28;20084;-65
2022/03/08 18:07:26;;;;;;;12.93;7.30;;;;;;;7.76;52.25;101001.69;8344036;28;20543;-65
2022/03/08 18:11:27;;;;;;;12.57;6.70;;;;;;;7.69;52.32;101005.78;8380831;28;20119;-65
2022/03/08 18:15:27;;;;;;;11.23;8.02;;;;;;;7.50;53.21;100994.63;8381757;28;20689;-65
2022/03/08 18:19:27;;;;;;;16.80;8.35;;;;;;;7.40;53.40;101008.84;8372097;28;20547;-65
2022/03/08 18:23:28;;;;;;;16.83;7.43;;;;;;;7.36;53.32;101007.34;8378901;28;20544;-65
2022/03/08 18:27:28;;;;;;;12.73;6.85;;;;;;;7.43;52.96;101020.25;8377231;28;20174;-65
2022/03/08 18:31:29;;;;;;;12.95;7.32;;;;;;;7.46;53.18;101024.53;8381523;28;20047;-64
2022/03/08 18:35:29;;;;;;;14.77;6.70;;;;;;;7.24;53.61;101025.19;8380300;28;20068;-65
2022/03/08 18:39:30;;;;;;;10.73;6.47;;;;;;;7.09;53.97;101026.28;8389654;28;20052;-64
2022/03/08 18:43:30;;;;;;;10.20;6.88;;;;;;;6.92;54.84;101040.00;8391061;28;20456;-64